Time;durP1;ratioP1;P1;durP2;ratioP2;P2;SDS_P1;SDS_P2;PMS_P1;PMS_P2;Temp;Humidity;BMP_temperature;BMP_pressure;BME280_temperature;BME280_humidity;BME280_pressure;Samples;Min_cycle;Max_cycle;Signal;HPM_P1;HPM_P2
2022/02/07 00:01:15;;;;;;;0.00;0.00;;;;;;;;;;5029992;28;20108;-74
2022/02/07 00:03:46;;;;;;;0.03;0.03;;;;;;;;;;5027534;28;20492;-74
2022/02/07 00:06:15;;;;;;;0.10;0.10;;;;;;;;;;5034095;28;20384;-74
2022/02/07 00:08:41;;;;;;;0.10;0.10;;;;;;;;;;5027642;28;20400;-74
2022/02/07 00:11:07;;;;;;;0.52;0.52;;;;;;;;;;5027991;28;20022;-74
2022/02/07 00:13:33;;;;;;;41.33;1.17;;;;;;;;;;5033821;28;20024;-73
2022/02/07 00:15:59;;;;;;;0.00;0.00;;;;;;;;;;5024185;28;20117;-74
2022/02/07 00:18:26;;;;;;;3.00;1.45;;;;;;;;;;5026844;28;20045;-74
2022/02/07 00:20:53;;;;;;;0.10;0.10;;;;;;;;;;5026468;28;20030;-75
2022/02/07 00:23:19;;;;;;;0.00;0.00;;;;;;;;;;5027023;28;20064;-74
2022/02/07 00:25:45;;;;;;;0.10;0.10;;;;;;;;;;5027148;28;20029;-74
2022/02/07 00:28:11;;;;;;;0.00;0.00;;;;;;;;;;5028107;28;20041;-74
2022/02/07 00:30:38;;;;;;;0.10;0.10;;;;;;;;;;5026163;28;20029;-74
2022/02/07 00:33:04;;;;;;;0.00;0.00;;;;;;;;;;5030736;28;20402;-74
2022/02/07 00:35:30;;;;;;;0.00;0.00;;;;;;;;;;5036753;28;20013;-74
2022/02/07 00:38:01;;;;;;;0.00;0.00;;;;;;;;;;5033760;28;20024;-75
2022/02/07 00:40:58;;;;;;;0.10;0.10;;;;;;;;;;5034843;28;20412;-75
2022/02/07 00:43:40;;;;;;;0.10;0.10;;;;;;;;;;5031450;28;20022;-74
2022/02/07 00:46:11;;;;;;;0.00;0.00;;;;;;;;;;5028926;28;20126;-74
2022/02/07 00:48:37;;;;;;;;;;;;;;;;;;5027636;28;20506;-74
2022/02/07 00:51:04;;;;;;;0.10;0.10;;;;;;;;;;5028239;28;19909;-74
2022/02/07 00:53:31;;;;;;;0.10;0.10;;;;;;;;;;5011596;28;20111;-74
2022/02/07 00:55:57;;;;;;;0.10;0.10;;;;;;;;;;5009161;28;20069;-75
2022/02/07 00:58:23;;;;;;;0.10;0.10;;;;;;;;;;5008096;28;20074;-74
2022/02/07 01:00:52;;;;;;;0.00;0.00;;;;;;;;;;5018015;28;20108;-74
2022/02/07 01:03:18;;;;;;;0.08;0.08;;;;;;;;;;5006925;28;20022;-74
2022/02/07 01:05:44;;;;;;;0.10;0.10;;;;;;;;;;5015628;28;20033;-74
2022/02/07 01:08:10;;;;;;;0.00;0.00;;;;;;;;;;5008095;28;20536;-74
2022/02/07 01:10:48;;;;;;;0.00;0.00;;;;;;;;;;5005158;28;20064;-74
2022/02/07 01:13:34;;;;;;;0.03;0.03;;;;;;;;;;5013413;28;20026;-74
2022/02/07 01:46:02;;;;;;;0.00;0.00;;;;;;;;;;5010149;28;20048;-74
2022/02/07 01:46:19;;;;;;;0.10;0.10;;;;;;;;;;5004521;28;20113;-74
2022/02/07 01:54:16;;;;;;;0.00;0.00;;;;;;;;;;5008010;28;20029;-74
2022/02/07 01:56:42;;;;;;;0.10;0.10;;;;;;;;;;5003285;28;20558;-75
2022/02/07 01:59:08;;;;;;;0.10;0.10;;;;;;;;;;5005354;28;20036;-73
2022/02/07 02:01:37;;;;;;;0.00;0.00;;;;;;;;;;5007055;28;20034;-74
2022/02/07 02:04:03;;;;;;;0.10;0.10;;;;;;;;;;5012233;28;20029;-74
2022/02/07 02:06:29;;;;;;;0.00;0.00;;;;;;;;;;5021602;28;20093;-74
2022/02/07 02:08:55;;;;;;;0.10;0.10;;;;;;;;;;5019496;28;20117;-74
2022/02/07 02:11:21;;;;;;;0.10;0.10;;;;;;;;;;5008726;28;20109;-75
2022/02/07 02:14:12;;;;;;;0.10;0.10;;;;;;;;;;5008968;28;20117;-74
2022/02/07 02:16:57;;;;;;;0.20;0.20;;;;;;;;;;5009121;28;20041;-75
2022/02/07 02:20:11;;;;;;;0.10;0.10;;;;;;;;;;5010676;28;20030;-74
2022/02/07 02:32:47;;;;;;;0.10;0.10;;;;;;;;;;4996911;28;20056;-74
2022/02/07 02:34:02;;;;;;;0.20;0.20;;;;;;;;;;4983870;28;20042;-74
2022/02/07 02:45:26;;;;;;;0.10;0.10;;;;;;;;;;5015349;28;20087;-75
2022/02/07 02:47:19;;;;;;;0.20;0.20;;;;;;;;;;5008671;28;20083;-74
2022/02/07 02:49:49;;;;;;;0.00;0.00;;;;;;;;;;5008883;28;20180;-74
2022/02/07 02:52:15;;;;;;;0.10;0.10;;;;;;;;;;5007924;28;20041;-74
2022/02/07 02:54:41;;;;;;;0.00;0.00;;;;;;;;;;4993753;28;20511;-75
2022/02/07 02:57:07;;;;;;;0.85;0.30;;;;;;;;;;5017004;28;20029;-74
2022/02/07 02:59:33;;;;;;;0.10;0.10;;;;;;;;;;5008459;28;20040;-74
2022/02/07 03:01:59;;;;;;;0.73;0.73;;;;;;;;;;5009609;28;20076;-74
2022/02/07 03:04:25;;;;;;;0.10;0.10;;;;;;;;;;5011723;28;20381;-74
2022/02/07 03:06:51;;;;;;;0.10;0.10;;;;;;;;;;5008359;28;20038;-74
2022/02/07 03:09:17;;;;;;;0.00;0.00;;;;;;;;;;4995199;28;20113;-75
2022/02/07 03:11:43;;;;;;;0.00;0.00;;;;;;;;;;5011019;28;20025;-74
2022/02/07 03:14:19;;;;;;;0.82;0.82;;;;;;;;;;5016684;28;20046;-74
2022/02/07 03:16:45;;;;;;;0.10;0.10;;;;;;;;;;5010277;28;20471;-74
2022/02/07 03:19:13;;;;;;;0.00;0.00;;;;;;;;;;5012812;28;20130;-74
2022/02/07 03:21:40;;;;;;;0.10;0.10;;;;;;;;;;5010245;28;20096;-74
2022/02/07 03:24:07;;;;;;;0.10;0.10;;;;;;;;;;5005050;28;20481;-74
2022/02/07 03:26:38;;;;;;;0.00;0.00;;;;;;;;;;5007484;28;20037;-74
2022/02/07 03:29:04;;;;;;;;;;;;;;;;;;5009773;28;20030;-74
2022/02/07 03:31:30;;;;;;;0.00;0.00;;;;;;;;;;5011973;28;20257;-74
2022/02/07 03:33:55;;;;;;;0.10;0.10;;;;;;;;;;5013147;28;20661;-74
2022/02/07 03:36:21;;;;;;;0.00;0.00;;;;;;;;;;5007814;28;20026;-74
2022/02/07 03:38:48;;;;;;;0.10;0.10;;;;;;;;;;5000548;28;20029;-75
2022/02/07 03:41:14;;;;;;;0.10;0.10;;;;;;;;;;5011342;28;20026;-74
2022/02/07 03:43:40;;;;;;;0.03;0.03;;;;;;;;;;5011963;28;20490;-74
2022/02/07 03:46:06;;;;;;;0.10;0.10;;;;;;;;;;5016463;28;20026;-73
2022/02/07 03:48:32;;;;;;;0.10;0.10;;;;;;;;;;5017156;28;20770;-74
2022/02/07 03:50:59;;;;;;;0.10;0.10;;;;;;;;;;5006587;28;20381;-73
2022/02/07 03:53:25;;;;;;;0.10;0.10;;;;;;;;;;5025166;28;20714;-74
2022/02/07 03:55:51;;;;;;;0.00;0.00;;;;;;;;;;5033557;28;20036;-74
2022/02/07 03:58:20;;;;;;;0.00;0.00;;;;;;;;;;5037205;28;20111;-74
2022/02/07 04:00:47;;;;;;;0.10;0.10;;;;;;;;;;5029946;28;20080;-74
2022/02/07 04:03:14;;;;;;;0.00;0.00;;;;;;;;;;5027710;28;20112;-74
2022/02/07 04:05:46;;;;;;;0.08;0.08;;;;;;;;;;5023022;28;20025;-74
2022/02/07 04:08:13;;;;;;;0.20;0.20;;;;;;;;;;5033576;28;20033;-74
2022/02/07 04:10:53;;;;;;;0.00;0.00;;;;;;;;;;5031735;28;20036;-74
2022/02/07 04:13:26;;;;;;;0.10;0.10;;;;;;;;;;5027315;28;20068;-74
2022/02/07 04:15:54;;;;;;;0.00;0.00;;;;;;;;;;5032363;28;20040;-74
2022/02/07 04:18:20;;;;;;;0.00;0.00;;;;;;;;;;5027399;28;20044;-75
2022/02/07 04:20:46;;;;;;;0.08;0.08;;;;;;;;;;5030033;28;20106;-74
2022/02/07 04:23:12;;;;;;;0.08;0.08;;;;;;;;;;5027094;28;20045;-74
2022/02/07 04:25:38;;;;;;;0.10;0.10;;;;;;;;;;5028044;28;20028;-74
2022/02/07 04:28:04;;;;;;;0.00;0.00;;;;;;;;;;5027883;28;20086;-74
2022/02/07 04:30:30;;;;;;;0.10;0.10;;;;;;;;;;5034386;28;20021;-74
2022/02/07 04:32:56;;;;;;;0.10;0.10;;;;;;;;;;5029063;28;20021;-74
2022/02/07 04:35:22;;;;;;;0.10;0.10;;;;;;;;;;5028674;28;20600;-73
2022/02/07 04:37:48;;;;;;;0.30;0.30;;;;;;;;;;5027994;28;20465;-74
2022/02/07 04:40:14;;;;;;;0.10;0.10;;;;;;;;;;5030271;28;20021;-74
2022/02/07 04:42:40;;;;;;;0.00;0.00;;;;;;;;;;5033975;28;20037;-74
2022/02/07 04:45:36;;;;;;;0.65;0.55;;;;;;;;;;5028418;28;20024;-75
2022/02/07 04:48:26;;;;;;;3.78;2.03;;;;;;;;;;5037029;28;20029;-74
2022/02/07 04:53:24;;;;;;;0.00;0.00;;;;;;;;;;5030441;28;20044;-74
2022/02/07 04:56:17;;;;;;;0.00;0.00;;;;;;;;;;5030454;28;20021;-75
2022/02/07 04:58:55;;;;;;;0.10;0.10;;;;;;;;;;5021690;28;20416;-74
2022/02/07 05:01:43;;;;;;;0.00;0.00;;;;;;;;;;5030262;28;20468;-74
2022/02/07 05:04:21;;;;;;;0.10;0.10;;;;;;;;;;5020818;28;20021;-73
2022/02/07 05:15:01;;;;;;;0.10;0.10;;;;;;;;;;5028522;28;20040;-74
2022/02/07 05:17:27;;;;;;;0.10;0.10;;;;;;;;;;5031887;28;20029;-74
2022/02/07 05:19:53;;;;;;;0.00;0.00;;;;;;;;;;5027001;28;20033;-74
2022/02/07 05:22:19;;;;;;;0.57;0.57;;;;;;;;;;5018848;28;20081;-74
2022/02/07 05:24:45;;;;;;;0.10;0.10;;;;;;;;;;5025831;28;20725;-74
2022/02/07 05:27:11;;;;;;;0.00;0.00;;;;;;;;;;5027602;28;20502;-74
2022/02/07 05:29:37;;;;;;;0.00;0.00;;;;;;;;;;5023705;28;20034;-74
2022/02/07 05:32:03;;;;;;;0.38;0.38;;;;;;;;;;5021326;28;20603;-74
2022/02/07 05:34:29;;;;;;;0.70;0.70;;;;;;;;;;5024255;28;20468;-74
2022/02/07 05:36:57;;;;;;;0.08;0.08;;;;;;;;;;5024664;28;20017;-74
2022/02/07 05:39:25;;;;;;;0.40;0.40;;;;;;;;;;5024812;28;20021;-74
2022/02/07 05:41:52;;;;;;;0.10;0.10;;;;;;;;;;5029721;28;20046;-74
2022/02/07 05:44:18;;;;;;;0.10;0.10;;;;;;;;;;5022712;28;20423;-74
2022/02/07 05:46:45;;;;;;;24.55;1.65;;;;;;;;;;5029896;28;20653;-74
2022/02/07 05:49:11;;;;;;;0.03;0.03;;;;;;;;;;5032920;28;20041;-74
2022/02/07 05:51:37;;;;;;;0.00;0.00;;;;;;;;;;5022450;28;20033;-74
2022/02/07 05:54:03;;;;;;;0.10;0.10;;;;;;;;;;5030264;28;20025;-74
2022/02/07 05:56:29;;;;;;;0.10;0.10;;;;;;;;;;5030345;28;20048;-74
2022/02/07 05:58:55;;;;;;;0.00;0.00;;;;;;;;;;5026941;28;20025;-75
2022/02/07 06:01:21;;;;;;;0.00;0.00;;;;;;;;;;5022291;28;20045;-74
2022/02/07 06:03:47;;;;;;;0.10;0.10;;;;;;;;;;5019225;28;20032;-74
2022/02/07 06:06:12;;;;;;;1.75;1.65;;;;;;;;;;5026279;28;20025;-73
2022/02/07 06:08:38;;;;;;;0.10;0.10;;;;;;;;;;5020809;28;20052;-74
2022/02/07 06:11:08;;;;;;;0.10;0.10;;;;;;;;;;5027558;28;20030;-74
2022/02/07 06:13:38;;;;;;;0.10;0.10;;;;;;;;;;5032783;28;20029;-74
2022/02/07 06:16:04;;;;;;;0.05;0.05;;;;;;;;;;5030998;28;20484;-74
2022/02/07 06:18:31;;;;;;;0.00;0.00;;;;;;;;;;5024844;28;20025;-74
2022/02/07 06:21:02;;;;;;;0.00;0.00;;;;;;;;;;5029647;28;20048;-74
2022/02/07 06:23:29;;;;;;;0.00;0.00;;;;;;;;;;5033635;28;20060;-74
2022/02/07 06:25:57;;;;;;;0.10;0.10;;;;;;;;;;5029775;28;20033;-74
2022/02/07 06:28:24;;;;;;;0.00;0.00;;;;;;;;;;5029873;28;20029;-74
2022/02/07 06:30:50;;;;;;;1.75;1.65;;;;;;;;;;5033152;28;20388;-74
2022/02/07 06:33:16;;;;;;;0.00;0.00;;;;;;;;;;5029628;28;20029;-74
2022/02/07 06:35:41;;;;;;;0.20;0.20;;;;;;;;;;5029780;28;20032;-74
2022/02/07 06:38:07;;;;;;;0.32;0.32;;;;;;;;;;5031085;28;20044;-74
2022/02/07 06:40:33;;;;;;;0.10;0.10;;;;;;;;;;5036256;28;20678;-73
2022/02/07 06:42:59;;;;;;;0.00;0.00;;;;;;;;;;5029535;28;20029;-74
2022/02/07 06:45:25;;;;;;;0.10;0.10;;;;;;;;;;5025491;28;20457;-74
2022/02/07 06:47:51;;;;;;;0.10;0.10;;;;;;;;;;5023168;28;20053;-76
2022/02/07 06:50:17;;;;;;;0.00;0.00;;;;;;;;;;5026105;28;20065;-74
2022/02/07 06:52:43;;;;;;;0.10;0.10;;;;;;;;;;5033301;28;20041;-74
2022/02/07 06:55:09;;;;;;;0.20;0.20;;;;;;;;;;5031397;28;20085;-75
2022/02/07 06:57:36;;;;;;;0.00;0.00;;;;;;;;;;5029248;28;20025;-73
2022/02/07 07:00:05;;;;;;;0.20;0.20;;;;;;;;;;5022473;28;20041;-75
2022/02/07 07:02:31;;;;;;;0.00;0.00;;;;;;;;;;5024981;28;20025;-75
2022/02/07 07:05:03;;;;;;;0.10;0.10;;;;;;;;;;5028220;28;20035;-76
2022/02/07 07:07:29;;;;;;;0.10;0.10;;;;;;;;;;5022598;28;20056;-75
2022/02/07 07:09:55;;;;;;;0.10;0.10;;;;;;;;;;5029300;28;20087;-75
2022/02/07 07:12:21;;;;;;;0.10;0.10;;;;;;;;;;5027802;28;20029;-76
2022/02/07 07:14:51;;;;;;;0.05;0.05;;;;;;;;;;5029102;28;20033;-75
2022/02/07 07:17:17;;;;;;;0.65;0.52;;;;;;;;;;5026406;28;20018;-76
2022/02/07 07:19:43;;;;;;;0.00;0.00;;;;;;;;;;5028608;28;20033;-75
2022/02/07 07:22:10;;;;;;;0.20;0.20;;;;;;;;;;5022142;28;20194;-75
2022/02/07 07:24:36;;;;;;;0.10;0.10;;;;;;;;;;5022717;28;20109;-75
2022/02/07 07:27:03;;;;;;;0.10;0.10;;;;;;;;;;5028855;28;20021;-74
2022/02/07 07:29:33;;;;;;;0.00;0.00;;;;;;;;;;5031591;28;20033;-74
2022/02/07 07:32:03;;;;;;;0.13;0.13;;;;;;;;;;5023953;28;20025;-74
2022/02/07 07:34:30;;;;;;;0.47;0.30;;;;;;;;;;5031529;28;20280;-74
2022/02/07 07:36:57;;;;;;;0.20;0.20;;;;;;;;;;5022994;28;20036;-74
2022/02/07 07:39:22;;;;;;;0.00;0.00;;;;;;;;;;5039459;28;20032;-73
2022/02/07 07:41:48;;;;;;;0.20;0.20;;;;;;;;;;5031965;28;20026;-74
2022/02/07 07:44:17;;;;;;;0.40;0.40;;;;;;;;;;5026292;28;20029;-74
2022/02/07 07:46:43;;;;;;;0.03;0.03;;;;;;;;;;5026907;28;20029;-73
2022/02/07 07:49:13;;;;;;;0.20;0.20;;;;;;;;;;5023411;28;20438;-73
2022/02/07 07:51:52;;;;;;;0.00;0.00;;;;;;;;;;5021285;28;20036;-74
2022/02/07 08:02:20;;;;;;;0.10;0.10;;;;;;;;;;5029817;28;20081;-72
2022/02/07 08:04:47;;;;;;;0.47;0.32;;;;;;;;;;5028551;28;20110;-74
2022/02/07 08:07:21;;;;;;;0.08;0.08;;;;;;;;;;5025183;28;20095;-75
2022/02/07 08:12:37;;;;;;;1.27;1.17;;;;;;;;;;5026421;28;20103;-85
2022/02/07 08:15:03;;;;;;;;;;;;;;;;;;5036080;28;20021;-72
2022/02/07 08:17:41;;;;;;;0.30;0.30;;;;;;;;;;5024747;28;19909;-71
2022/02/07 08:20:07;;;;;;;0.10;0.10;;;;;;;;;;5025964;28;20033;-71
2022/02/07 08:22:33;;;;;;;0.10;0.10;;;;;;;;;;5028194;28;20037;-71
2022/02/07 08:25:00;;;;;;;0.20;0.20;;;;;;;;;;5024221;28;20030;-70
2022/02/07 08:27:27;;;;;;;0.00;0.00;;;;;;;;;;5022824;28;20040;-71
2022/02/07 08:29:53;;;;;;;0.40;0.30;;;;;;;;;;5021165;28;20588;-71
2022/02/07 08:32:19;;;;;;;1.55;0.88;;;;;;;;;;5027808;28;20487;-71
2022/02/07 08:34:45;;;;;;;0.10;0.10;;;;;;;;;;5016695;28;20029;-72
2022/02/07 08:37:11;;;;;;;0.05;0.05;;;;;;;;;;5012901;28;20022;-73
2022/02/07 08:39:37;;;;;;;0.00;0.00;;;;;;;;;;5018987;28;20068;-72
2022/02/07 08:42:03;;;;;;;0.10;0.10;;;;;;;;;;5025021;28;20065;-70
2022/02/07 08:44:29;;;;;;;0.00;0.00;;;;;;;;;;5017579;28;20039;-71
2022/02/07 08:46:55;;;;;;;0.35;0.35;;;;;;;;;;5022483;28;20029;-71
2022/02/07 08:49:22;;;;;;;0.00;0.00;;;;;;;;;;5024734;28;21007;-72
2022/02/07 08:51:49;;;;;;;0.05;0.05;;;;;;;;;;5027953;28;20041;-73
2022/02/07 08:54:21;;;;;;;0.20;0.20;;;;;;;;;;5026099;28;20048;-72
2022/02/07 08:56:52;;;;;;;0.10;0.10;;;;;;;;;;5026918;28;20025;-72
2022/02/07 08:59:20;;;;;;;;;;;;;;;;;;5028133;28;20025;-70
2022/02/07 09:02:03;;;;;;;0.28;0.28;;;;;;;;;;5028742;28;20601;-73
2022/02/07 09:04:49;;;;;;;0.38;0.32;;;;;;;;;;5027820;28;20025;-73
2022/02/07 09:07:24;;;;;;;0.00;0.00;;;;;;;;;;5018249;28;20029;-72
2022/02/07 09:09:50;;;;;;;0.10;0.10;;;;;;;;;;5025935;28;20029;-72
2022/02/07 09:12:16;;;;;;;2.65;1.98;;;;;;;;;;5022243;28;20143;-73
2022/02/07 09:14:50;;;;;;;0.10;0.10;;;;;;;;;;5027439;28;20101;-73
2022/02/07 09:17:16;;;;;;;0.13;0.13;;;;;;;;;;5033903;28;20527;-72
2022/02/07 09:19:42;;;;;;;0.57;0.57;;;;;;;;;;5025504;28;20137;-72
2022/02/07 09:22:08;;;;;;;0.15;0.15;;;;;;;;;;5025570;28;20021;-73
2022/02/07 09:24:34;;;;;;;0.00;0.00;;;;;;;;;;5025498;28;20112;-72
2022/02/07 09:27:00;;;;;;;0.17;0.15;;;;;;;;;;5020369;28;20033;-72
2022/02/07 09:29:26;;;;;;;0.65;0.65;;;;;;;;;;5015163;28;20060;-72
2022/02/07 09:31:52;;;;;;;0.45;0.35;;;;;;;;;;5025937;28;20032;-72
2022/02/07 09:34:18;;;;;;;0.00;0.00;;;;;;;;;;5025022;28;20151;-72
2022/02/07 09:36:44;;;;;;;0.45;0.45;;;;;;;;;;5028547;28;20029;-72
2022/02/07 09:39:10;;;;;;;0.10;0.10;;;;;;;;;;5024825;28;20036;-72
2022/02/07 09:41:36;;;;;;;6.13;1.77;;;;;;;;;;5022268;28;20029;-72
2022/02/07 09:44:03;;;;;;;0.00;0.00;;;;;;;;;;5028766;28;20044;-71
2022/02/07 09:46:45;;;;;;;0.05;0.05;;;;;;;;;;5026833;28;20029;-71
2022/02/07 09:49:13;;;;;;;0.03;0.03;;;;;;;;;;5022827;28;20049;-72
2022/02/07 09:51:42;;;;;;;0.00;0.00;;;;;;;;;;5025369;28;20041;-72
2022/02/07 09:54:08;;;;;;;0.00;0.00;;;;;;;;;;5029953;28;20538;-72
2022/02/07 09:56:34;;;;;;;0.10;0.10;;;;;;;;;;5021653;28;20048;-72
2022/02/07 09:59:00;;;;;;;0.90;0.52;;;;;;;;;;5027776;28;20029;-72
2022/02/07 10:01:29;;;;;;;0.00;0.00;;;;;;;;;;5040442;28;20088;-73
2022/02/07 10:04:03;;;;;;;0.57;0.57;;;;;;;;;;5022205;28;20656;-72
2022/02/07 10:06:37;;;;;;;0.22;0.22;;;;;;;;;;5034434;28;20053;-72
2022/02/07 10:14:28;;;;;;;0.10;0.10;;;;;;;;;;5041793;28;20037;-73
2022/02/07 10:17:16;;;;;;;0.98;0.55;;;;;;;;;;5028147;28;20037;-71
2022/02/07 10:19:59;;;;;;;1.90;1.80;;;;;;;;;;5013878;28;20053;-73
2022/02/07 10:34:25;;;;;;;0.35;0.35;;;;;;;;;;5020620;28;20021;-73
2022/02/07 10:37:03;;;;;;;1.00;0.90;;;;;;;;;;5029037;28;20089;-73
2022/02/07 10:39:27;;;;;;;0.40;0.40;;;;;;;;;;5007788;28;20038;-72
2022/02/07 10:42:29;;;;;;;0.10;0.10;;;;;;;;;;5029659;28;20034;-72
2022/02/07 10:44:56;;;;;;;0.13;0.13;;;;;;;;;;5021917;28;20128;-73
2022/02/07 10:47:27;;;;;;;0.00;0.00;;;;;;;;;;5020021;28;20037;-73
2022/02/07 10:50:02;;;;;;;0.55;0.55;;;;;;;;;;5020856;28;20499;-73
2022/02/07 10:52:29;;;;;;;0.00;0.00;;;;;;;;;;5024839;28;20033;-73
2022/02/07 10:54:54;;;;;;;0.10;0.10;;;;;;;;;;5021101;28;20025;-72
2022/02/07 10:57:22;;;;;;;0.00;0.00;;;;;;;;;;5017230;28;20431;-73
2022/02/07 10:59:48;;;;;;;0.08;0.08;;;;;;;;;;5008972;28;20060;-73
2022/02/07 11:02:40;;;;;;;1.25;0.28;;;;;;;;;;5024236;28;20492;-72
2022/02/07 11:05:06;;;;;;;0.55;0.55;;;;;;;;;;5017188;28;20110;-72
2022/02/07 11:07:34;;;;;;;0.20;0.20;;;;;;;;;;5014258;28;20037;-72
2022/02/07 11:10:27;;;;;;;0.00;0.00;;;;;;;;;;5021780;28;20033;-72
2022/02/07 11:13:14;;;;;;;0.00;0.00;;;;;;;;;;5021307;28;20032;-73
2022/02/07 11:15:48;;;;;;;0.28;0.28;;;;;;;;;;5021285;28;20025;-72
2022/02/07 11:18:38;;;;;;;0.55;0.55;;;;;;;;;;5017896;28;20707;-73
2022/02/07 11:21:14;;;;;;;0.90;0.90;;;;;;;;;;5014870;28;20174;-73
2022/02/07 11:23:52;;;;;;;0.40;0.40;;;;;;;;;;5017751;28;20029;-73
2022/02/07 11:26:50;;;;;;;0.20;0.20;;;;;;;;;;5023693;28;20025;-73
2022/02/07 11:29:34;;;;;;;0.00;0.00;;;;;;;;;;5033441;28;20045;-73
2022/02/07 11:32:00;;;;;;;0.08;0.08;;;;;;;;;;5017241;28;20029;-72
2022/02/07 11:34:40;;;;;;;0.10;0.10;;;;;;;;;;5021056;28;20017;-72
2022/02/07 11:37:21;;;;;;;0.40;0.40;;;;;;;;;;5021849;28;20037;-73
2022/02/07 11:39:50;;;;;;;0.13;0.13;;;;;;;;;;5011273;28;20112;-73
2022/02/07 11:42:16;;;;;;;0.30;0.30;;;;;;;;;;5026153;28;20053;-72
2022/02/07 11:44:45;;;;;;;0.17;0.17;;;;;;;;;;5026917;28;20428;-72
2022/02/07 11:47:17;;;;;;;7.47;1.27;;;;;;;;;;5026044;28;20329;-72
2022/02/07 11:49:47;;;;;;;0.65;0.65;;;;;;;;;;5020246;28;20025;-73
2022/02/07 11:52:29;;;;;;;1.75;1.10;;;;;;;;;;5028462;28;20041;-73
2022/02/07 11:54:56;;;;;;;0.30;0.30;;;;;;;;;;5024042;28;20045;-72
2022/02/07 11:57:24;;;;;;;0.35;0.35;;;;;;;;;;5017328;28;20392;-73
2022/02/07 11:59:59;;;;;;;0.10;0.10;;;;;;;;;;5019733;28;20071;-72
2022/02/07 12:02:35;;;;;;;1.02;0.70;;;;;;;;;;5025848;28;20564;-72
2022/02/07 12:05:01;;;;;;;0.20;0.20;;;;;;;;;;5027760;28;20036;-72
2022/02/07 12:07:30;;;;;;;0.15;0.15;;;;;;;;;;5027405;28;20030;-72
2022/02/07 12:10:14;;;;;;;1.15;0.52;;;;;;;;;;5019181;28;20842;-73
2022/02/07 12:15:15;;;;;;;0.30;0.30;;;;;;;;;;5022223;28;20473;-73
2022/02/07 12:17:41;;;;;;;0.00;0.00;;;;;;;;;;5021051;28;20112;-72
2022/02/07 12:20:08;;;;;;;0.20;0.20;;;;;;;;;;5023197;28;20091;-72
2022/02/07 12:22:49;;;;;;;4.00;1.08;;;;;;;;;;5027017;28;20029;-73
2022/02/07 12:25:22;;;;;;;1.70;0.65;;;;;;;;;;5022742;28;20075;-73
2022/02/07 12:27:48;;;;;;;0.47;0.47;;;;;;;;;;5026949;28;20052;-73
2022/02/07 12:30:29;;;;;;;0.10;0.10;;;;;;;;;;5019011;28;20799;-73
2022/02/07 12:32:55;;;;;;;0.10;0.10;;;;;;;;;;5019498;28;20075;-73
2022/02/07 12:35:24;;;;;;;0.10;0.10;;;;;;;;;;5019822;28;20049;-73
2022/02/07 12:37:50;;;;;;;4.53;1.52;;;;;;;;;;5018090;28;20026;-72
2022/02/07 12:40:16;;;;;;;0.43;0.43;;;;;;;;;;5010345;28;20147;-73
2022/02/07 12:42:44;;;;;;;0.10;0.10;;;;;;;;;;5012904;28;20105;-73
2022/02/07 12:45:10;;;;;;;3.25;1.40;;;;;;;;;;5023342;28;20087;-73
2022/02/07 12:47:38;;;;;;;0.43;0.43;;;;;;;;;;5016598;28;20025;-73
2022/02/07 12:50:14;;;;;;;1.23;0.45;;;;;;;;;;5019475;28;20044;-73
2022/02/07 12:52:40;;;;;;;0.17;0.17;;;;;;;;;;5021413;28;20045;-74
2022/02/07 12:55:07;;;;;;;1.80;0.65;;;;;;;;;;5021873;28;20083;-73
2022/02/07 12:57:38;;;;;;;0.25;0.25;;;;;;;;;;5024871;28;20451;-73
2022/02/07 13:00:04;;;;;;;0.10;0.10;;;;;;;;;;5034070;28;20484;-73
2022/02/07 13:02:30;;;;;;;0.00;0.00;;;;;;;;;;5019068;28;20507;-74
2022/02/07 13:04:56;;;;;;;0.10;0.10;;;;;;;;;;5024579;28;20025;-73
2022/02/07 13:07:25;;;;;;;0.10;0.10;;;;;;;;;;5022025;28;20476;-73
2022/02/07 13:09:54;;;;;;;0.00;0.00;;;;;;;;;;5029084;28;20025;-73
2022/02/07 13:14:57;;;;;;;0.03;0.03;;;;;;;;;;5015979;28;20087;-73
2022/02/07 13:17:23;;;;;;;0.30;0.30;;;;;;;;;;5020359;28;20068;-73
2022/02/07 13:19:50;;;;;;;0.00;0.00;;;;;;;;;;5024291;28;20048;-72
2022/02/07 13:22:17;;;;;;;0.65;0.65;;;;;;;;;;5025282;28;20040;-73
2022/02/07 13:24:43;;;;;;;0.00;0.00;;;;;;;;;;5016859;28;20038;-72
2022/02/07 13:27:11;;;;;;;0.43;0.43;;;;;;;;;;5027077;28;20813;-72
2022/02/07 13:29:44;;;;;;;0.17;0.17;;;;;;;;;;5011054;28;20060;-74
2022/02/07 13:32:11;;;;;;;0.28;0.28;;;;;;;;;;5021096;28;20026;-73
2022/02/07 13:34:38;;;;;;;0.70;0.63;;;;;;;;;;5006685;28;20655;-73
2022/02/07 13:37:26;;;;;;;11.30;1.08;;;;;;;;;;5015609;28;20047;-72
2022/02/07 13:39:54;;;;;;;0.30;0.30;;;;;;;;;;5018411;28;20029;-73
2022/02/07 13:42:25;;;;;;;0.40;0.20;;;;;;;;;;5024828;28;20112;-73
2022/02/07 13:44:52;;;;;;;0.10;0.10;;;;;;;;;;5028831;28;20049;-73
2022/02/07 13:47:20;;;;;;;0.10;0.10;;;;;;;;;;5026482;28;20044;-73
2022/02/07 13:49:53;;;;;;;0.52;0.38;;;;;;;;;;5022525;28;20041;-73
2022/02/07 13:52:19;;;;;;;14.70;1.00;;;;;;;;;;5025084;28;20052;-72
2022/02/07 13:54:45;;;;;;;0.00;0.00;;;;;;;;;;5019683;28;20033;-72
2022/02/07 13:57:12;;;;;;;0.38;0.38;;;;;;;;;;5026744;28;20388;-72
2022/02/07 13:59:38;;;;;;;0.47;0.47;;;;;;;;;;5023407;28;20047;-72
2022/02/07 14:02:24;;;;;;;0.20;0.20;;;;;;;;;;5035426;28;20391;-72
2022/02/07 14:04:54;;;;;;;0.00;0.00;;;;;;;;;;5022329;28;20052;-73
2022/02/07 14:07:20;;;;;;;0.10;0.10;;;;;;;;;;5022334;28;20392;-73
2022/02/07 14:09:46;;;;;;;2.92;2.08;;;;;;;;;;5024345;28;20034;-72
2022/02/07 14:12:13;;;;;;;0.40;0.40;;;;;;;;;;5016542;28;20053;-72
2022/02/07 14:14:39;;;;;;;0.10;0.10;;;;;;;;;;5020096;28;20384;-73
2022/02/07 14:17:06;;;;;;;0.10;0.10;;;;;;;;;;5021763;28;20499;-72
2022/02/07 14:19:35;;;;;;;0.00;0.00;;;;;;;;;;5020373;28;20033;-72
2022/02/07 14:22:01;;;;;;;0.00;0.00;;;;;;;;;;5027430;28;20420;-71
2022/02/07 14:24:27;;;;;;;0.30;0.30;;;;;;;;;;5031549;28;20078;-70
2022/02/07 14:26:54;;;;;;;0.10;0.10;;;;;;;;;;5019707;28;20029;-73
2022/02/07 14:29:20;;;;;;;0.00;0.00;;;;;;;;;;5021117;28;20266;-72
2022/02/07 14:31:46;;;;;;;0.10;0.10;;;;;;;;;;5037960;28;20025;-72
2022/02/07 14:34:12;;;;;;;0.00;0.00;;;;;;;;;;5042595;28;20025;-73
2022/02/07 14:36:38;;;;;;;0.10;0.10;;;;;;;;;;5032672;28;20481;-72
2022/02/07 14:39:06;;;;;;;0.10;0.10;;;;;;;;;;5026489;28;20030;-72
2022/02/07 14:41:32;;;;;;;0.00;0.00;;;;;;;;;;5031680;28;20083;-72
2022/02/07 14:44:03;;;;;;;0.10;0.10;;;;;;;;;;5030397;28;20030;-73
2022/02/07 14:46:35;;;;;;;0.55;0.20;;;;;;;;;;5034486;28;20082;-73
2022/02/07 14:49:01;;;;;;;4.30;1.00;;;;;;;;;;5029282;28;20022;-72
2022/02/07 14:51:27;;;;;;;0.00;0.00;;;;;;;;;;5028255;28;20036;-71
2022/02/07 14:53:53;;;;;;;0.08;0.08;;;;;;;;;;5023909;28;20049;-71
2022/02/07 14:56:19;;;;;;;0.65;0.65;;;;;;;;;;5015161;28;20029;-72
2022/02/07 14:58:45;;;;;;;0.17;0.17;;;;;;;;;;5032424;28;20484;-72
2022/02/07 15:01:12;;;;;;;0.82;0.82;;;;;;;;;;5032613;28;20021;-73
2022/02/07 15:03:38;;;;;;;0.45;0.45;;;;;;;;;;5026170;28;20040;-73
2022/02/07 15:06:05;;;;;;;0.00;0.00;;;;;;;;;;5030521;28;20476;-72
2022/02/07 15:08:31;;;;;;;3.22;2.15;;;;;;;;;;5028452;28;20026;-72
2022/02/07 15:10:59;;;;;;;0.10;0.10;;;;;;;;;;5026858;28;20037;-72
2022/02/07 15:13:31;;;;;;;0.00;0.00;;;;;;;;;;5029366;28;20025;-72
2022/02/07 15:15:57;;;;;;;5.85;1.05;;;;;;;;;;5027292;28;20278;-72
2022/02/07 15:18:23;;;;;;;0.82;0.82;;;;;;;;;;5028938;28;20025;-71
2022/02/07 15:20:49;;;;;;;0.98;0.28;;;;;;;;;;5029950;28;20056;-72
2022/02/07 15:23:15;;;;;;;0.00;0.00;;;;;;;;;;5034557;28;20071;-71
2022/02/07 15:25:41;;;;;;;0.08;0.08;;;;;;;;;;5029509;28;20137;-71
2022/02/07 15:28:08;;;;;;;4.88;0.80;;;;;;;;;;5029538;28;20049;-71
2022/02/07 15:30:40;;;;;;;0.00;0.00;;;;;;;;;;5028891;28;20379;-71
2022/02/07 15:33:09;;;;;;;0.10;0.10;;;;;;;;;;5028168;28;20060;-72
2022/02/07 15:35:35;;;;;;;0.08;0.08;;;;;;;;;;5029328;28;20042;-71
2022/02/07 15:38:01;;;;;;;0.08;0.08;;;;;;;;;;5010479;28;20032;-70
2022/02/07 15:40:27;;;;;;;3.95;1.58;;;;;;;;;;5022135;28;20036;-71
2022/02/07 15:42:55;;;;;;;0.80;0.43;;;;;;;;;;5028722;28;20025;-71
2022/02/07 15:45:22;;;;;;;1.30;0.28;;;;;;;;;;5027032;28;20737;-71
2022/02/07 15:47:48;;;;;;;3.10;0.38;;;;;;;;;;5028681;28;21772;-71
2022/02/07 15:50:14;;;;;;;0.00;0.00;;;;;;;;;;5030344;28;20033;-70
2022/02/07 15:52:41;;;;;;;0.15;0.15;;;;;;;;;;5033491;28;20033;-70
2022/02/07 15:55:08;;;;;;;0.85;0.85;;;;;;;;;;5034477;28;20489;-70
2022/02/07 15:57:40;;;;;;;0.20;0.20;;;;;;;;;;5031064;28;20034;-71
2022/02/07 16:00:07;;;;;;;0.00;0.00;;;;;;;;;;5015095;28;20082;-70
2022/02/07 16:02:33;;;;;;;1.10;1.00;;;;;;;;;;5026195;28;20044;-76
2022/02/07 16:04:59;;;;;;;0.52;0.52;;;;;;;;;;5024596;28;20033;-71
2022/02/07 16:07:25;;;;;;;0.60;0.60;;;;;;;;;;5023626;28;20086;-72
2022/02/07 16:09:51;;;;;;;0.20;0.20;;;;;;;;;;5012071;28;20029;-71
2022/02/07 16:12:19;;;;;;;0.10;0.10;;;;;;;;;;5032170;28;20033;-73
2022/02/07 16:14:45;;;;;;;0.00;0.00;;;;;;;;;;5031243;28;20443;-70
2022/02/07 16:17:12;;;;;;;0.10;0.10;;;;;;;;;;5027265;28;20033;-73
2022/02/07 16:19:38;;;;;;;0.20;0.20;;;;;;;;;;5021712;28;20510;-70
2022/02/07 16:22:05;;;;;;;0.15;0.15;;;;;;;;;;5027100;28;20476;-74
2022/02/07 16:24:31;;;;;;;0.00;0.00;;;;;;;;;;5022038;28;20124;-73
2022/02/07 16:26:57;;;;;;;0.00;0.00;;;;;;;;;;5025718;28;20183;-74
2022/02/07 16:29:23;;;;;;;0.00;0.00;;;;;;;;;;5032219;28;20036;-71